createdAt,value
2019-01-21T00:00:34.084Z,170.70
2019-01-21T00:03:06.339Z,164.40
2019-01-21T00:05:36.263Z,170.93
2019-01-21T00:08:06.698Z,171.73
2019-01-21T00:10:37.561Z,172.30
2019-01-21T00:13:07.592Z,167.87
2019-01-21T00:15:38.023Z,165.23
2019-01-21T00:18:08.384Z,180.47
2019-01-21T00:20:38.578Z,169.80
2019-01-21T00:23:08.656Z,173.20
2019-01-21T00:25:38.536Z,176.27
2019-01-21T00:28:08.774Z,176.60
2019-01-21T00:30:39.108Z,174.17
2019-01-21T00:33:09.570Z,174.90
2019-01-21T00:35:39.878Z,171.43
2019-01-21T00:38:09.765Z,170.00
2019-01-21T00:40:39.788Z,175.07
2019-01-21T00:43:09.824Z,175.17
2019-01-21T00:45:39.962Z,181.23
2019-01-21T00:48:09.861Z,171.87
2019-01-21T00:50:39.731Z,166.43
2019-01-21T00:53:09.618Z,165.23
2019-01-21T00:55:39.895Z,178.73
2019-01-21T00:58:09.779Z,181.57
2019-01-21T01:00:39.699Z,186.70
2019-01-21T01:03:09.851Z,177.73
2019-01-21T01:05:39.789Z,173.37
2019-01-21T01:08:10.811Z,167.97
2019-01-21T01:10:42.129Z,173.27
2019-01-21T01:13:12.213Z,169.20
2019-01-21T01:15:43.451Z,168.83
2019-01-21T01:18:13.542Z,178.50
2019-01-21T01:20:43.821Z,173.27
2019-01-21T01:23:13.778Z,188.80
2019-01-21T01:25:43.720Z,182.83
2019-01-21T01:28:13.663Z,178.60
2019-01-21T01:30:43.771Z,174.50
2019-01-21T01:33:14.250Z,183.63
2019-01-21T01:35:44.213Z,176.13
2019-01-21T01:38:14.106Z,166.90
2019-01-21T01:40:44.820Z,184.07
2019-01-21T01:43:14.739Z,186.43
2019-01-21T01:45:44.921Z,175.63
2019-01-21T01:48:16.022Z,176.97
2019-01-21T01:50:45.957Z,177.43
2019-01-21T01:53:16.048Z,178.13
2019-01-21T01:55:46.491Z,174.63
2019-01-21T01:58:16.461Z,172.70
2019-01-21T02:00:46.496Z,183.10
2019-01-21T02:03:18.098Z,171.53
2019-01-21T02:05:48.075Z,171.50
2019-01-21T02:08:18.576Z,177.43
2019-01-21T02:10:48.534Z,177.67
2019-01-21T02:13:18.369Z,172.30
2019-01-21T02:15:48.394Z,178.57
2019-01-21T02:18:18.284Z,167.70
2019-01-21T02:20:51.314Z,179.33
2019-01-21T02:23:23.674Z,165.50
2019-01-21T02:25:54.709Z,171.87
2019-01-21T02:28:33.514Z,156.00
2019-01-21T02:31:22.771Z,170.07
2019-01-21T02:34:12.365Z,155.23
2019-01-21T02:36:58.483Z,155.93
2019-01-21T02:42:24.284Z,165.97
2019-01-21T02:45:12.168Z,165.97
2019-01-21T02:48:00.117Z,168.33
2019-01-21T02:50:34.723Z,161.67
2019-01-21T02:53:28.235Z,163.20
2019-01-21T02:56:04.402Z,168.63
2019-01-21T02:59:10.675Z,165.23
2019-01-21T03:01:52.956Z,164.03
2019-01-21T03:04:34.199Z,167.47
2019-01-21T03:07:25.157Z,167.57
2019-01-21T03:10:01.015Z,159.37
2019-01-21T03:12:51.766Z,159.10
2019-01-21T03:15:42.692Z,167.60
2019-01-21T03:18:30.235Z,159.37
2019-01-21T03:21:34.362Z,162.50
2019-01-21T03:24:24.053Z,148.70
2019-01-21T03:27:05.759Z,155.17
2019-01-21T03:30:01.236Z,154.90
2019-01-21T03:33:00.915Z,146.90
2019-01-21T03:35:34.235Z,138.63
2019-01-21T03:38:23.522Z,120.60
2019-01-21T03:41:13.843Z,111.60
2019-01-21T03:43:52.570Z,93.17
2019-01-21T03:46:33.910Z,89.93
2019-01-21T03:49:07.179Z,80.83
2019-01-21T03:51:57.975Z,80.03
2019-01-21T03:54:29.102Z,81.77
2019-01-21T03:57:05.159Z,77.93
2019-01-21T03:59:43.909Z,76.63
2019-01-21T04:02:22.839Z,66.90
2019-01-21T04:05:01.627Z,67.53
2019-01-21T04:07:51.345Z,67.33
2019-01-21T04:10:40.960Z,50.17
2019-01-21T04:13:22.616Z,64.37
2019-01-21T04:16:10.781Z,65.80
2019-01-21T04:18:52.653Z,68.63
2019-01-21T04:21:37.713Z,67.40
2019-01-21T04:24:10.840Z,66.73
2019-01-21T04:26:44.015Z,73.77
2019-01-21T04:29:16.977Z,71.57
2019-01-21T04:31:53.064Z,68.37
2019-01-21T04:34:29.299Z,65.53
2019-01-21T04:37:11.174Z,66.77
2019-01-21T04:39:51.301Z,65.73
2019-01-21T04:42:42.781Z,63.97
2019-01-21T04:45:30.118Z,65.00
2019-01-21T04:48:09.684Z,66.17
2019-01-21T04:51:12.547Z,67.17
2019-01-21T04:53:57.661Z,61.27
2019-01-21T04:56:33.537Z,61.53
2019-01-21T04:59:09.061Z,59.17
2019-01-21T05:01:47.863Z,62.20
2019-01-21T05:04:35.738Z,63.87
2019-01-21T05:07:08.717Z,59.80
2019-01-21T05:09:56.018Z,63.40
2019-01-21T05:12:36.137Z,62.73
2019-01-21T05:15:25.543Z,63.97
2019-01-21T05:18:13.719Z,61.67
2019-01-21T05:20:49.745Z,59.07
2019-01-21T05:23:44.112Z,61.27
2019-01-21T05:26:19.857Z,62.37
2019-01-21T05:28:53.282Z,61.20
2019-01-21T05:31:39.502Z,62.73
2019-01-21T05:34:30.299Z,60.93
2019-01-21T05:37:05.927Z,66.23
2019-01-21T05:39:50.621Z,63.67
2019-01-21T05:42:49.236Z,62.03
2019-01-21T05:45:38.457Z,57.40
2019-01-21T05:48:28.062Z,56.47
2019-01-21T05:51:09.378Z,57.53
2019-01-21T05:54:00.462Z,58.67
2019-01-21T05:56:40.164Z,56.40
2019-01-21T05:59:33.870Z,60.37
2019-01-21T06:02:25.346Z,55.50
2019-01-21T06:05:00.857Z,58.03
2019-01-21T06:07:48.497Z,55.10
2019-01-21T06:10:27.290Z,56.67
2019-01-21T06:13:02.743Z,58.60
2019-01-21T06:15:44.653Z,60.23
2019-01-21T06:18:20.155Z,58.37
2019-01-21T06:21:22.458Z,62.53
2019-01-21T06:24:06.947Z,62.17
2019-01-21T06:27:02.403Z,65.77
2019-01-21T06:29:36.525Z,65.33
2019-01-21T06:32:28.852Z,65.60
2019-01-21T06:35:07.955Z,65.43
2019-01-21T06:37:59.278Z,65.90
2019-01-21T06:40:53.352Z,67.67
2019-01-21T06:43:32.259Z,68.00
2019-01-21T06:46:24.534Z,67.30
2019-01-21T06:49:21.096Z,65.40
2019-01-21T06:52:01.044Z,60.13
2019-01-21T06:54:37.448Z,66.37
2019-01-21T06:57:16.692Z,72.43
2019-01-21T07:00:10.478Z,66.50
2019-01-21T07:03:05.860Z,68.53
2019-01-21T07:05:58.740Z,69.93
2019-01-21T07:08:31.725Z,71.70
2019-01-21T07:11:10.542Z,73.07
2019-01-21T07:13:51.608Z,76.33
2019-01-21T07:16:47.606Z,74.97
2019-01-21T07:19:35.811Z,70.63
2019-01-21T07:22:46.184Z,79.27
2019-01-21T07:25:35.649Z,76.63
2019-01-21T07:28:08.774Z,63.37
2019-01-21T07:31:02.720Z,79.60
2019-01-21T07:34:07.545Z,81.00
2019-01-21T07:36:41.371Z,76.93
2019-01-21T07:39:14.300Z,82.50
2019-01-21T07:42:10.674Z,76.30
2019-01-21T07:44:58.208Z,77.13
2019-01-21T07:47:36.697Z,82.63
2019-01-21T07:50:23.965Z,75.13
2019-01-21T07:53:05.607Z,75.20
2019-01-21T07:56:02.830Z,82.00
2019-01-21T07:58:51.511Z,81.63
2019-01-21T08:01:42.229Z,80.63
2019-01-21T08:04:32.432Z,87.87
2019-01-21T08:07:20.913Z,86.43
2019-01-21T08:09:59.135Z,75.40
2019-01-21T08:12:50.595Z,74.97
2019-01-21T08:15:35.473Z,77.87
2019-01-21T08:18:32.968Z,79.70
2019-01-21T08:21:24.070Z,68.60
2019-01-21T08:24:05.937Z,73.03
2019-01-21T08:26:57.990Z,72.13
2019-01-21T08:29:39.610Z,85.00
2019-01-21T08:32:18.787Z,85.80
2019-01-21T08:34:52.096Z,83.13
2019-01-21T08:37:41.408Z,85.27
2019-01-21T08:40:23.683Z,74.23
2019-01-21T08:43:16.724Z,83.17
2019-01-21T08:46:07.552Z,81.50
2019-01-21T08:48:54.511Z,70.60
2019-01-21T08:51:51.941Z,69.23
2019-01-21T08:54:30.857Z,76.80
2019-01-21T08:57:12.849Z,73.40
2019-01-21T08:59:46.524Z,75.27
2019-01-21T09:02:31.777Z,70.03
2019-01-21T09:05:28.579Z,75.33
2019-01-21T09:08:13.715Z,74.67
2019-01-21T09:11:06.459Z,83.33
2019-01-21T09:13:56.207Z,75.37
2019-01-21T09:16:50.426Z,74.40
2019-01-21T09:19:44.617Z,78.07
2019-01-21T09:22:34.449Z,73.00
2019-01-21T09:25:15.187Z,73.90
2019-01-21T09:27:49.078Z,68.03
2019-01-21T09:30:37.329Z,71.47
2019-01-21T09:33:17.875Z,62.40
2019-01-21T09:36:13.459Z,61.90
2019-01-21T09:39:14.333Z,67.30
2019-01-21T09:42:05.418Z,78.50
2019-01-21T09:44:38.887Z,86.10
2019-01-21T09:47:09.100Z,88.47
2019-01-21T09:49:43.791Z,83.80
2019-01-21T09:52:17.862Z,84.70
2019-01-21T09:54:56.838Z,85.77
2019-01-21T09:57:27.861Z,89.27
2019-01-21T09:59:59.577Z,83.07
2019-01-21T10:02:40.477Z,80.00
2019-01-21T10:05:10.533Z,74.40
2019-01-21T10:07:50.463Z,70.93
2019-01-21T10:10:40.593Z,66.43
2019-01-21T10:13:43.302Z,66.77
2019-01-21T10:16:28.782Z,68.30
2019-01-21T10:19:28.931Z,72.83
2019-01-21T10:22:13.775Z,69.83
2019-01-21T10:24:53.522Z,61.73
2019-01-21T10:27:30.975Z,59.33
2019-01-21T10:30:10.782Z,62.20
2019-01-21T10:33:06.029Z,63.47
2019-01-21T10:35:39.763Z,64.60
2019-01-21T10:38:39.119Z,68.43
2019-01-21T10:41:14.875Z,61.90
2019-01-21T10:43:57.437Z,62.77
2019-01-21T10:46:33.492Z,58.80
2019-01-21T10:49:24.645Z,62.10
2019-01-21T10:52:28.637Z,62.90
2019-01-21T10:55:14.079Z,63.00
2019-01-21T10:57:53.128Z,63.10
2019-01-21T11:00:46.865Z,61.63
2019-01-21T11:03:23.527Z,62.80
2019-01-21T11:06:14.448Z,59.67
2019-01-21T11:08:50.532Z,60.30
2019-01-21T11:11:42.211Z,58.70
2019-01-21T11:14:30.176Z,58.47
2019-01-21T11:17:19.907Z,59.80
2019-01-21T11:20:18.975Z,63.07
2019-01-21T11:23:10.904Z,60.43
2019-01-21T11:26:04.456Z,64.03
2019-01-21T11:28:47.145Z,58.73
2019-01-21T11:31:35.628Z,63.07
2019-01-21T11:34:20.603Z,65.27
2019-01-21T11:36:54.349Z,65.10
2019-01-21T11:39:51.253Z,66.83
2019-01-21T11:42:31.849Z,63.37
2019-01-21T11:45:08.419Z,70.03
2019-01-21T11:47:58.200Z,68.60
2019-01-21T11:50:41.457Z,72.77
2019-01-21T11:53:16.374Z,72.17
2019-01-21T11:56:02.219Z,73.00
2019-01-21T11:58:45.104Z,71.53
2019-01-21T12:01:32.067Z,72.67
2019-01-21T12:04:20.806Z,73.30
2019-01-21T12:07:03.012Z,70.23
2019-01-21T12:09:58.049Z,74.90
2019-01-21T12:12:31.203Z,76.93
2019-01-21T12:15:10.455Z,79.93
2019-01-21T12:17:49.626Z,77.60
2019-01-21T12:20:40.768Z,74.67
2019-01-21T12:23:19.716Z,79.20
2019-01-21T12:25:59.631Z,77.40
2019-01-21T12:28:41.451Z,74.43
2019-01-21T12:31:18.005Z,80.80
2019-01-21T12:34:00.027Z,80.80
2019-01-21T12:36:40.825Z,82.47
2019-01-21T12:39:16.628Z,79.90
2019-01-21T12:41:59.131Z,73.80
2019-01-21T12:44:50.298Z,74.13
2019-01-21T12:47:29.908Z,69.83
2019-01-21T12:50:11.724Z,74.73
2019-01-21T12:52:45.458Z,74.40
2019-01-21T12:55:39.583Z,71.73
2019-01-21T12:58:30.576Z,71.83
2019-01-21T13:01:06.407Z,70.37
2019-01-21T13:03:50.133Z,77.10
2019-01-21T13:06:38.459Z,80.13
2019-01-21T13:09:19.461Z,71.43
2019-01-21T13:12:13.991Z,72.77
2019-01-21T13:15:00.424Z,71.73
2019-01-21T13:17:41.126Z,72.30
2019-01-21T13:20:40.085Z,75.53
2019-01-21T13:23:22.678Z,69.53
2019-01-21T13:25:59.335Z,74.73
2019-01-21T13:28:35.348Z,74.40
2019-01-21T13:31:17.370Z,77.83
2019-01-21T13:34:03.198Z,77.60
2019-01-21T13:37:09.349Z,75.07
2019-01-21T13:40:04.511Z,74.17
2019-01-21T13:42:57.427Z,74.03
2019-01-21T13:46:03.519Z,75.03
2019-01-21T13:48:36.870Z,75.53
2019-01-21T13:51:26.341Z,81.60
2019-01-21T13:54:19.100Z,76.07
2019-01-21T13:57:06.387Z,79.00
2019-01-21T13:59:49.476Z,78.97
2019-01-21T14:02:29.075Z,81.93
2019-01-21T14:05:14.543Z,76.53
2019-01-21T14:07:54.833Z,81.27
2019-01-21T14:10:34.787Z,77.00
2019-01-21T14:13:12.109Z,78.40
2019-01-21T14:15:45.539Z,78.37
2019-01-21T14:18:27.844Z,78.53
2019-01-21T14:21:19.669Z,82.77
2019-01-21T14:23:52.576Z,83.47
2019-01-21T14:26:52.001Z,79.67
2019-01-21T14:29:32.408Z,84.13
2019-01-21T14:32:14.292Z,80.40
2019-01-21T14:34:57.322Z,84.50
2019-01-21T14:37:48.574Z,82.67
2019-01-21T14:40:30.319Z,80.30
2019-01-21T14:43:08.402Z,83.00
2019-01-21T14:45:56.100Z,83.47
2019-01-21T14:48:47.266Z,82.17
2019-01-21T14:51:38.783Z,86.50
2019-01-21T14:54:21.017Z,84.47
2019-01-21T14:57:05.482Z,86.10
2019-01-21T14:59:58.200Z,84.50
2019-01-21T15:02:38.511Z,87.83
2019-01-21T15:05:26.725Z,84.17
2019-01-21T15:08:08.971Z,83.53
2019-01-21T15:10:41.857Z,85.30
2019-01-21T15:13:27.366Z,87.33
2019-01-21T15:16:23.522Z,90.03
2019-01-21T15:19:11.151Z,89.37
2019-01-21T15:21:52.399Z,87.43
2019-01-21T15:24:34.824Z,97.20
2019-01-21T15:27:14.469Z,90.13
2019-01-21T15:29:53.673Z,94.30
2019-01-21T15:32:35.753Z,90.80
2019-01-21T15:35:21.515Z,96.50
2019-01-21T15:38:17.934Z,96.37
2019-01-21T15:41:01.257Z,91.70
2019-01-21T15:43:34.671Z,92.33
2019-01-21T15:46:35.901Z,97.07
2019-01-21T15:49:12.462Z,95.33
2019-01-21T15:52:19.158Z,94.00
2019-01-21T15:55:00.536Z,95.47
2019-01-21T15:57:36.736Z,95.60
2019-01-21T16:00:31.924Z,92.77
2019-01-21T16:03:10.832Z,99.63
2019-01-21T16:05:56.119Z,93.70
2019-01-21T16:08:29.710Z,93.93
2019-01-21T16:11:11.701Z,97.87
2019-01-21T16:13:45.427Z,97.87
2019-01-21T16:16:40.262Z,94.13
2019-01-21T16:19:13.565Z,92.47
2019-01-21T16:22:10.671Z,99.80
2019-01-21T16:24:49.646Z,99.50
2019-01-21T16:27:31.977Z,101.67
2019-01-21T16:30:04.872Z,104.63
2019-01-21T16:32:38.180Z,105.50
2019-01-21T16:35:20.365Z,101.53
2019-01-21T16:37:53.291Z,101.10
2019-01-21T16:40:32.422Z,108.47
2019-01-21T16:43:02.497Z,100.83
2019-01-21T16:45:36.496Z,102.20
2019-01-21T16:48:06.587Z,108.13
2019-01-21T16:50:36.757Z,101.57
2019-01-21T16:53:09.520Z,105.03
2019-01-21T16:55:39.935Z,108.23
2019-01-21T16:58:09.920Z,99.57
2019-01-21T17:00:41.200Z,103.23
2019-01-21T17:03:11.224Z,104.63
2019-01-21T17:05:41.600Z,106.07
2019-01-21T17:08:12.003Z,105.93
2019-01-21T17:10:42.201Z,101.93
2019-01-21T17:13:13.180Z,99.67
2019-01-21T17:15:45.902Z,104.87
2019-01-21T17:18:15.880Z,101.00
2019-01-21T17:20:45.883Z,94.77
2019-01-21T17:23:15.898Z,99.97
2019-01-21T17:25:45.784Z,102.87
2019-01-21T17:28:16.440Z,94.97
2019-01-21T17:30:46.319Z,99.43
2019-01-21T17:33:16.230Z,101.80
2019-01-21T17:35:46.298Z,96.27
2019-01-21T17:38:16.360Z,100.93
2019-01-21T17:40:47.558Z,105.63
2019-01-21T17:43:19.444Z,102.80
2019-01-21T17:45:49.478Z,110.20
2019-01-21T17:48:19.600Z,104.00
2019-01-21T17:50:51.012Z,98.73
2019-01-21T17:53:24.286Z,105.90
2019-01-21T17:55:55.234Z,98.47
2019-01-21T17:58:25.732Z,104.93
2019-01-21T18:00:57.949Z,103.77
2019-01-21T18:03:29.118Z,107.73
2019-01-21T18:06:01.044Z,102.63
2019-01-21T18:08:31.861Z,101.23
2019-01-21T18:11:04.976Z,102.70
2019-01-21T18:13:35.024Z,103.43
2019-01-21T18:16:05.581Z,105.17
2019-01-21T18:18:35.834Z,104.37
2019-01-21T18:21:07.499Z,103.83
2019-01-21T18:23:38.168Z,100.70
2019-01-21T18:26:09.440Z,107.30
2019-01-21T18:28:41.033Z,104.07
2019-01-21T18:31:12.104Z,109.33
2019-01-21T18:33:42.488Z,111.30
2019-01-21T18:36:13.920Z,118.20
2019-01-21T18:38:43.954Z,119.63
2019-01-21T18:41:14.093Z,118.63
2019-01-21T18:43:45.563Z,115.07
2019-01-21T18:46:15.700Z,112.27
2019-01-21T18:48:45.871Z,110.93
2019-01-21T18:51:15.973Z,109.87
2019-01-21T18:53:46.519Z,113.83
2019-01-21T18:56:16.568Z,108.73
2019-01-21T18:58:48.152Z,110.57
2019-01-21T19:01:18.480Z,109.50
2019-01-21T19:03:50.296Z,113.13
2019-01-21T19:06:27.382Z,110.40
2019-01-21T19:09:06.078Z,114.33
2019-01-21T19:11:36.722Z,112.17
2019-01-21T19:14:07.104Z,110.20
2019-01-21T19:16:37.220Z,105.33
2019-01-21T19:19:09.415Z,111.00
2019-01-21T19:21:43.801Z,116.27
2019-01-21T19:24:14.921Z,112.10
2019-01-21T19:26:51.024Z,112.43
2019-01-21T19:29:22.719Z,117.37
2019-01-21T19:31:57.123Z,118.50
2019-01-21T19:34:43.032Z,114.50
2019-01-21T19:37:06.793Z,111.67
2019-01-21T19:39:42.417Z,104.97
2019-01-21T19:42:13.695Z,106.50
2019-01-21T19:44:46.720Z,104.97
2019-01-21T19:47:18.991Z,104.23
2019-01-21T19:49:53.501Z,102.60
2019-01-21T19:52:26.575Z,109.40
2019-01-21T19:55:02.522Z,103.70
2019-01-21T19:57:34.822Z,100.10
2019-01-21T20:00:10.616Z,100.47
2019-01-21T20:02:44.483Z,98.80
2019-01-21T20:05:16.842Z,96.33
2019-01-21T20:07:47.762Z,104.27
2019-01-21T20:10:23.152Z,102.97
2019-01-21T20:12:56.432Z,107.57
2019-01-21T20:15:27.581Z,107.40
2019-01-21T20:17:58.480Z,97.60
2019-01-21T20:20:38.926Z,98.37
2019-01-21T20:23:11.272Z,100.83
2019-01-21T20:25:45.763Z,108.10
2019-01-21T20:28:16.440Z,104.77
2019-01-21T20:30:47.560Z,101.93
2019-01-21T20:33:18.068Z,100.83
2019-01-21T20:35:48.289Z,102.30
2019-01-21T20:38:18.754Z,102.97
2019-01-21T20:40:48.982Z,99.40
2019-01-21T20:43:19.360Z,100.67
2019-01-21T20:45:49.760Z,102.57
2019-01-21T20:48:20.199Z,102.23
2019-01-21T20:50:50.750Z,102.83
2019-01-21T20:53:21.192Z,104.20
2019-01-21T20:55:51.679Z,106.17
2019-01-21T20:58:23.680Z,105.97
2019-01-21T21:00:55.479Z,109.90
2019-01-21T21:03:27.720Z,106.87
2019-01-21T21:05:58.553Z,105.53
2019-01-21T21:08:28.841Z,106.87
2019-01-21T21:10:58.834Z,108.03
2019-01-21T21:13:29.600Z,106.90
2019-01-21T21:15:59.992Z,106.20
2019-01-21T21:18:30.072Z,105.37
2019-01-21T21:21:00.419Z,101.77
2019-01-21T21:23:30.661Z,105.37
2019-01-21T21:26:02.641Z,102.80
2019-01-21T21:28:33.132Z,102.10
2019-01-21T21:31:03.222Z,100.43
2019-01-21T21:33:45.920Z,100.60
2019-01-21T21:36:17.119Z,105.23
2019-01-21T21:38:47.869Z,101.10
2019-01-21T21:41:18.800Z,106.87
2019-01-21T21:43:48.920Z,102.73
2019-01-21T21:46:21.159Z,103.53
2019-01-21T21:48:51.419Z,101.93
2019-01-21T21:51:23.866Z,111.13
2019-01-21T21:53:54.152Z,101.97
2019-01-21T21:56:24.279Z,105.13
2019-01-21T21:58:56.216Z,104.07
2019-01-21T22:01:26.220Z,103.80
2019-01-21T22:03:57.256Z,108.77
2019-01-21T22:06:27.383Z,102.57
2019-01-21T22:08:58.329Z,105.23
2019-01-21T22:11:29.759Z,107.23
2019-01-21T22:14:00.138Z,101.40
2019-01-21T22:16:31.244Z,102.87
2019-01-21T22:19:01.621Z,104.10
2019-01-21T22:21:33.486Z,106.20
2019-01-21T22:24:03.834Z,107.83
2019-01-21T22:26:34.072Z,104.67
2019-01-21T22:29:04.086Z,104.23
2019-01-21T22:31:34.402Z,106.17
2019-01-21T22:34:04.862Z,104.00
2019-01-21T22:36:35.341Z,104.33
2019-01-21T22:39:08.417Z,105.03
2019-01-21T22:41:40.342Z,104.03
2019-01-21T22:44:10.456Z,103.43
2019-01-21T22:46:40.570Z,108.93
2019-01-21T22:49:11.016Z,101.60
2019-01-21T22:51:41.453Z,110.70
2019-01-21T22:54:11.815Z,102.93
2019-01-21T22:56:41.989Z,105.23
2019-01-21T22:59:13.775Z,101.90
2019-01-21T23:01:44.659Z,97.60
2019-01-21T23:04:15.936Z,101.03
2019-01-21T23:06:46.725Z,103.33
2019-01-21T23:09:17.501Z,105.30
2019-01-21T23:11:48.218Z,102.27
2019-01-21T23:14:18.439Z,106.83
2019-01-21T23:16:48.447Z,101.53
2019-01-21T23:19:18.784Z,100.60
2019-01-21T23:21:50.628Z,100.23
2019-01-21T23:24:26.650Z,106.50
2019-01-21T23:26:57.080Z,102.97
2019-01-21T23:29:27.302Z,101.03
2019-01-21T23:31:57.302Z,104.13
2019-01-21T23:34:27.798Z,101.57
2019-01-21T23:36:57.835Z,103.43
2019-01-21T23:39:27.883Z,107.67
2019-01-21T23:41:57.946Z,102.03
2019-01-21T23:44:29.470Z,101.40
2019-01-21T23:46:59.701Z,101.27
2019-01-21T23:49:29.712Z,107.30
2019-01-21T23:51:59.757Z,103.77
2019-01-21T23:54:29.829Z,104.03
2019-01-21T23:56:59.860Z,98.40
2019-01-21T23:59:30.268Z,104.67
